Time;durP1;ratioP1;P1;durP2;ratioP2;P2;SDS_P1;SDS_P2;PMS_P1;PMS_P2;Temp;Humidity;BMP_temperature;BMP_pressure;BME280_temperature;BME280_humidity;BME280_pressure;Samples;Min_cycle;Max_cycle;Signal;HPM_P1;HPM_P2
2021/09/09 00:00:02;;;;;;;8.67;5.90;;;15.40;99.90;;;16.36;100.00;97821.09;5061457;28;20488;-81
2021/09/09 00:02:30;;;;;;;7.17;5.50;;;15.20;99.90;;;16.24;100.00;97811.59;5062102;28;20548;-81
2021/09/09 00:04:59;;;;;;;7.63;5.27;;;15.00;99.90;;;16.17;100.00;97811.69;5064471;28;20844;-81
2021/09/09 00:07:28;;;;;;;8.87;6.20;;;14.90;99.90;;;16.19;100.00;97812.25;5057081;28;20453;-81
2021/09/09 00:09:57;;;;;;;7.40;5.67;;;15.00;99.90;;;16.21;100.00;97812.03;5062135;28;20820;-81
2021/09/09 00:12:26;;;;;;;9.10;6.20;;;14.90;99.90;;;16.20;100.00;97813.88;5054304;28;20969;-81
2021/09/09 00:14:54;;;;;;;7.60;5.60;;;14.90;99.90;;;16.22;100.00;97809.16;5052490;28;20540;-81
2021/09/09 00:17:23;;;;;;;8.90;6.10;;;15.10;99.90;;;16.17;100.00;97803.78;5057469;28;20465;-81
2021/09/09 00:19:52;;;;;;;8.60;5.57;;;15.00;99.90;;;16.16;100.00;97802.16;5052728;28;20461;-81
2021/09/09 00:22:20;;;;;;;11.20;6.73;;;14.90;99.90;;;16.22;100.00;97800.44;5055799;28;20529;-81
2021/09/09 00:24:49;;;;;;;9.17;5.77;;;15.00;99.90;;;16.25;100.00;97807.88;5052208;28;20874;-81
2021/09/09 00:27:19;;;;;;;10.13;6.23;;;15.00;99.90;;;16.26;100.00;97799.75;5058796;28;20519;-81
2021/09/09 00:29:47;;;;;;;10.10;6.13;;;15.10;99.90;;;16.20;100.00;97799.88;5053438;28;20499;-81
2021/09/09 00:32:16;;;;;;;9.27;6.03;;;15.00;99.90;;;16.06;100.00;97796.66;5051312;28;20492;-81
2021/09/09 00:34:44;;;;;;;9.10;5.70;;;14.80;99.90;;;16.12;100.00;97806.28;5051040;28;20909;-81
2021/09/09 00:37:13;;;;;;;10.13;5.70;;;14.90;99.90;;;16.03;100.00;97802.38;5051876;28;20521;-80
2021/09/09 00:39:41;;;;;;;9.60;6.17;;;14.80;99.90;;;16.03;100.00;97800.56;5051512;28;20465;-81
2021/09/09 00:42:10;;;;;;;10.20;6.40;;;14.90;99.90;;;16.08;100.00;97791.94;5050705;28;20493;-81
2021/09/09 00:44:39;;;;;;;8.47;5.53;;;14.90;99.90;;;16.00;100.00;97794.94;5058354;28;20475;-81
2021/09/09 00:47:11;;;;;;;9.37;5.80;;;14.80;99.90;;;15.98;100.00;97796.97;5061833;28;20464;-81
2021/09/09 00:49:44;;;;;;;11.10;5.77;;;14.70;99.90;;;15.99;100.00;97793.31;5055393;28;20989;-81
2021/09/09 00:52:15;;;;;;;9.80;5.40;;;14.80;99.90;;;15.91;100.00;97786.53;5062764;28;20457;-81
2021/09/09 00:54:47;;;;;;;11.37;6.23;;;14.60;99.90;;;15.96;100.00;97777.94;5061342;28;20492;-81
2021/09/09 00:57:18;;;;;;;12.70;6.00;;;14.70;99.90;;;15.84;100.00;97790.28;5055781;28;20453;-81
2021/09/09 00:59:48;;;;;;;8.90;5.80;;;14.60;99.90;;;15.85;100.00;97782.16;5058303;28;21047;-81
2021/09/09 01:02:17;;;;;;;8.30;5.77;;;14.60;99.90;;;15.82;100.00;97781.81;5070427;28;20504;-81
2021/09/09 01:04:46;;;;;;;10.83;6.10;;;14.60;99.90;;;15.84;100.00;97785.03;5063691;28;20815;-81
2021/09/09 01:07:14;;;;;;;10.20;5.27;;;14.60;99.90;;;15.83;100.00;97778.13;5055104;28;20523;-81
2021/09/09 01:09:43;;;;;;;11.67;6.10;;;14.70;99.90;;;15.77;100.00;97784.31;5057826;28;20448;-81
2021/09/09 01:12:12;;;;;;;9.93;6.20;;;14.60;99.90;;;15.82;100.00;97771.28;5055981;28;20515;-81
2021/09/09 01:14:41;;;;;;;10.83;5.90;;;14.70;99.90;;;15.78;100.00;97778.84;5054878;28;20531;-81
2021/09/09 01:17:11;;;;;;;8.43;5.63;;;14.60;99.90;;;15.74;100.00;97768.94;5063294;28;20506;-81
2021/09/09 01:19:39;;;;;;;8.67;6.20;;;14.50;99.90;;;15.75;100.00;97767.94;5058251;28;20511;-81
2021/09/09 01:22:08;;;;;;;8.43;6.03;;;14.50;99.90;;;15.79;100.00;97769.09;5061814;28;20495;-83
2021/09/09 01:24:41;;;;;;;9.93;6.40;;;14.50;99.90;;;15.65;100.00;97770.31;5058538;28;20463;-81
2021/09/09 01:27:10;;;;;;;7.93;5.67;;;14.40;99.90;;;15.60;100.00;97776.25;5057365;28;20510;-81
2021/09/09 01:29:42;;;;;;;10.13;6.23;;;14.30;99.90;;;15.56;100.00;97775.91;5053105;28;20519;-80
2021/09/09 01:32:12;;;;;;;9.57;6.33;;;14.30;99.90;;;15.57;100.00;97769.63;5061410;28;20815;-81
2021/09/09 01:34:41;;;;;;;9.77;5.63;;;14.30;99.90;;;15.53;100.00;97773.72;5060757;28;20502;-81
2021/09/09 01:37:11;;;;;;;7.33;5.70;;;14.20;99.90;;;15.43;100.00;97772.63;5064213;28;20472;-81
2021/09/09 01:39:46;;;;;;;9.60;5.63;;;14.10;99.90;;;15.34;100.00;97764.22;5055447;28;21477;-81
2021/09/09 01:42:16;;;;;;;8.37;5.90;;;14.00;99.90;;;15.39;100.00;97772.28;5057403;28;20536;-81
2021/09/09 01:44:44;;;;;;;11.10;6.77;;;14.10;99.90;;;15.29;100.00;97766.75;5060481;28;20468;-80
2021/09/09 01:47:13;;;;;;;9.10;6.07;;;13.90;99.90;;;15.31;100.00;97761.22;5067215;28;20465;-81
2021/09/09 01:49:41;;;;;;;11.93;6.23;;;14.00;99.90;;;15.30;100.00;97762.28;5055750;28;20484;-81
2021/09/09 01:52:10;;;;;;;11.90;6.53;;;14.00;99.90;;;15.31;100.00;97763.88;5060846;28;20518;-81
2021/09/09 01:54:38;;;;;;;13.90;6.27;;;14.10;99.90;;;15.30;100.00;97757.00;5062588;28;20997;-81
2021/09/09 01:57:08;;;;;;;8.47;5.90;;;14.10;99.90;;;15.28;100.00;97757.22;5060783;28;20558;-81
2021/09/09 01:59:37;;;;;;;9.27;6.30;;;14.10;99.90;;;15.26;100.00;97755.84;5057679;28;21034;-81
2021/09/09 02:02:05;;;;;;;7.47;5.67;;;14.10;99.90;;;15.29;100.00;97756.19;5060302;28;20464;-81
2021/09/09 02:04:34;;;;;;;8.40;5.73;;;14.10;99.90;;;15.33;100.00;97752.09;5059559;28;20522;-81
2021/09/09 02:07:03;;;;;;;8.13;5.90;;;14.20;99.90;;;15.23;100.00;97751.84;5060746;28;20598;-81
2021/09/09 02:09:31;;;;;;;9.13;5.97;;;14.10;99.90;;;15.28;100.00;97754.59;5063405;28;21355;-81
2021/09/09 02:12:00;;;;;;;13.47;6.60;;;14.10;99.90;;;15.32;100.00;97760.22;5063501;28;20522;-81
2021/09/09 02:14:30;;;;;;;10.20;6.60;;;14.10;99.90;;;15.22;100.00;97755.50;5063352;28;20517;-81
2021/09/09 02:16:58;;;;;;;9.00;6.23;;;13.90;99.90;;;15.25;100.00;97757.66;5060015;28;20524;-81
2021/09/09 02:19:27;;;;;;;9.57;6.03;;;14.10;99.90;;;15.20;100.00;97752.28;5063656;28;20460;-81
2021/09/09 02:21:55;;;;;;;9.90;6.40;;;13.90;99.90;;;15.08;100.00;97759.31;5064971;28;20452;-80
2021/09/09 02:24:24;;;;;;;8.47;6.20;;;13.70;99.90;;;15.09;100.00;97745.94;5058745;28;20526;-81
2021/09/09 02:26:52;;;;;;;10.03;6.80;;;13.70;99.90;;;15.12;100.00;97747.31;5063897;28;20468;-80
2021/09/09 02:29:20;;;;;;;9.33;6.00;;;13.90;99.90;;;14.95;100.00;97748.97;5058348;28;20820;-81
2021/09/09 02:31:50;;;;;;;11.07;5.40;;;13.70;99.90;;;14.96;100.00;97756.63;5059716;28;20453;-81
2021/09/09 02:34:19;;;;;;;18.40;5.77;;;13.70;99.90;;;15.00;100.00;97747.25;5064804;28;20465;-81
2021/09/09 02:36:47;;;;;;;9.50;5.80;;;13.70;99.90;;;14.96;100.00;97748.72;5060856;28;20549;-81
2021/09/09 02:39:16;;;;;;;8.73;5.70;;;13.70;99.90;;;14.92;100.00;97755.47;5063684;28;20468;-81
2021/09/09 02:41:44;;;;;;;8.87;6.27;;;13.60;99.90;;;14.94;100.00;97753.41;5057079;28;20499;-81
2021/09/09 02:44:13;;;;;;;8.87;5.83;;;13.70;99.90;;;14.97;100.00;97749.53;5063646;28;20505;-82
2021/09/09 02:46:41;;;;;;;8.97;5.70;;;13.70;99.90;;;14.92;100.00;97749.41;5063495;28;20521;-81
2021/09/09 02:49:11;;;;;;;13.23;6.20;;;13.70;99.90;;;14.92;100.00;97752.03;5059749;28;20902;-81
2021/09/09 02:51:40;;;;;;;8.30;5.40;;;13.70;99.90;;;14.89;100.00;97744.59;5062060;28;20460;-81
2021/09/09 02:54:08;;;;;;;8.10;6.00;;;13.60;99.90;;;14.94;100.00;97742.88;5062362;28;20948;-81
2021/09/09 02:56:37;;;;;;;8.03;5.23;;;13.90;99.90;;;14.96;100.00;97738.19;5065256;28;20511;-81
2021/09/09 02:59:05;;;;;;;8.93;6.03;;;13.90;99.90;;;14.88;100.00;97735.06;5060920;28;20551;-81
2021/09/09 03:01:34;;;;;;;9.70;6.73;;;13.70;99.90;;;14.99;100.00;97736.97;5061620;28;20477;-81
2021/09/09 03:04:03;;;;;;;10.60;6.53;;;13.90;99.90;;;15.02;100.00;97734.69;5064509;28;20463;-81
2021/09/09 03:06:33;;;;;;;8.23;6.50;;;13.90;99.90;;;15.00;100.00;97725.38;5059834;28;20519;-81
2021/09/09 03:09:02;;;;;;;12.37;6.00;;;13.90;99.90;;;14.99;100.00;97732.47;5060113;28;20479;-82
2021/09/09 03:11:30;;;;;;;9.00;6.27;;;13.90;99.90;;;15.03;100.00;97738.91;5062631;28;20496;-82
2021/09/09 03:13:59;;;;;;;11.00;6.33;;;13.90;99.90;;;14.91;100.00;97738.06;5069829;28;20933;-81
2021/09/09 03:16:27;;;;;;;9.53;5.40;;;13.80;99.90;;;14.91;100.00;97740.69;5064168;28;20518;-81
2021/09/09 03:18:56;;;;;;;7.60;6.00;;;13.80;99.90;;;14.89;100.00;97729.56;5058566;28;20522;-81
2021/09/09 03:21:24;;;;;;;8.83;5.97;;;13.70;99.90;;;14.90;100.00;97735.66;5061079;28;20485;-81
2021/09/09 03:23:54;;;;;;;8.37;5.90;;;13.70;99.90;;;14.89;100.00;97734.06;5060020;28;20541;-81
2021/09/09 03:26:23;;;;;;;10.67;5.83;;;13.80;99.90;;;14.92;100.00;97742.31;5056993;28;20453;-81
2021/09/09 03:28:51;;;;;;;8.67;6.37;;;13.80;99.90;;;14.86;100.00;97745.81;5056419;28;20460;-81
2021/09/09 03:31:20;;;;;;;8.10;5.60;;;13.70;99.90;;;14.80;100.00;97743.25;5054688;28;20530;-81
2021/09/09 03:33:48;;;;;;;8.30;5.77;;;13.80;99.90;;;14.76;100.00;97742.09;5061468;28;20501;-81
2021/09/09 03:36:17;;;;;;;11.37;6.30;;;13.60;99.90;;;14.79;100.00;97741.66;5057945;28;20493;-81
2021/09/09 03:38:45;;;;;;;10.30;5.80;;;13.70;99.90;;;14.68;100.00;97745.84;5061902;28;20537;-82
2021/09/09 03:41:15;;;;;;;11.33;6.73;;;13.50;99.90;;;14.77;100.00;97747.16;5057525;28;20832;-81
2021/09/09 03:43:44;;;;;;;9.17;6.63;;;13.60;99.90;;;14.74;100.00;97744.97;5053932;28;20464;-81
2021/09/09 03:46:12;;;;;;;7.63;6.07;;;13.50;99.90;;;14.76;100.00;97753.44;5054363;28;20481;-81
2021/09/09 03:48:41;;;;;;;12.23;7.10;;;13.60;99.90;;;14.77;100.00;97752.41;5060362;28;20489;-81
2021/09/09 03:51:10;;;;;;;7.73;5.60;;;13.60;99.90;;;14.77;100.00;97751.59;5061477;28;20453;-82
2021/09/09 03:53:38;;;;;;;9.20;6.70;;;13.60;99.90;;;14.81;100.00;97758.03;5064291;28;20457;-79
2021/09/09 03:56:07;;;;;;;17.40;6.60;;;13.70;99.90;;;14.76;100.00;97747.34;5068158;28;20480;-79
2021/09/09 03:58:38;;;;;;;10.40;6.20;;;13.60;99.90;;;14.77;100.00;97746.34;5070588;28;20514;-80
2021/09/09 04:01:06;;;;;;;9.10;6.13;;;13.60;99.90;;;14.71;100.00;97744.59;5063517;28;21008;-79
2021/09/09 04:03:35;;;;;;;8.23;6.00;;;13.50;99.90;;;14.67;100.00;97746.06;5068848;28;21012;-79
2021/09/09 04:06:04;;;;;;;10.47;6.23;;;13.50;99.90;;;14.65;100.00;97742.84;5071926;28;20484;-82
2021/09/09 04:08:32;;;;;;;6.27;5.20;;;13.50;99.90;;;14.57;100.00;97742.13;5070917;28;20460;-80
2021/09/09 04:11:01;;;;;;;12.00;5.53;;;13.40;99.90;;;14.61;100.00;97748.53;5064190;28;20495;-80
2021/09/09 04:13:29;;;;;;;8.77;6.33;;;13.50;99.90;;;14.66;100.00;97740.00;5063017;28;20492;-80
2021/09/09 04:15:59;;;;;;;9.90;6.23;;;13.50;99.90;;;14.56;100.00;97745.78;5055359;28;20482;-80
2021/09/09 04:18:28;;;;;;;7.30;5.43;;;13.40;99.90;;;14.56;100.00;97737.88;5058706;28;20575;-80
2021/09/09 04:20:56;;;;;;;11.37;6.00;;;13.40;99.90;;;14.49;100.00;97745.03;5056846;28;20476;-79
2021/09/09 04:23:25;;;;;;;9.33;6.73;;;13.30;99.90;;;14.42;100.00;97744.31;5053702;28;20506;-80
2021/09/09 04:25:53;;;;;;;12.13;6.43;;;13.30;99.90;;;14.40;100.00;97735.84;5062954;28;20477;-80
2021/09/09 04:28:22;;;;;;;11.00;6.90;;;13.20;99.90;;;14.40;100.00;97727.94;5062818;28;20510;-80
2021/09/09 04:30:51;;;;;;;9.50;6.53;;;13.20;99.90;;;14.45;100.00;97725.44;5060868;28;20456;-80
2021/09/09 04:33:21;;;;;;;11.03;6.40;;;13.30;99.90;;;14.44;100.00;97731.72;5058173;28;20488;-81
2021/09/09 04:35:49;;;;;;;12.30;6.10;;;13.20;99.90;;;14.43;100.00;97730.13;5052770;28;20502;-80
2021/09/09 04:38:18;;;;;;;9.50;6.30;;;13.30;99.90;;;14.40;100.00;97727.13;5054662;28;20547;-79
2021/09/09 04:40:46;;;;;;;10.00;6.60;;;13.20;99.90;;;14.39;100.00;97720.25;5051815;28;20949;-80
2021/09/09 04:43:15;;;;;;;8.43;6.00;;;13.20;99.90;;;14.37;100.00;97725.72;5057269;28;20452;-79
2021/09/09 04:45:47;;;;;;;9.53;5.90;;;13.20;99.90;;;14.30;100.00;97719.69;5051925;28;20461;-80
2021/09/09 04:48:16;;;;;;;11.33;7.30;;;13.10;99.90;;;14.25;100.00;97716.94;5055409;28;20472;-80
2021/09/09 04:50:46;;;;;;;9.27;5.70;;;13.00;99.90;;;14.18;100.00;97720.66;5059101;28;20476;-79
2021/09/09 04:53:14;;;;;;;9.57;6.47;;;12.90;99.90;;;14.19;100.00;97725.69;5056831;28;20444;-79
2021/09/09 04:55:42;;;;;;;12.43;6.20;;;12.90;99.90;;;14.17;100.00;97719.84;5069173;28;20522;-79
2021/09/09 04:58:11;;;;;;;11.90;7.30;;;12.90;99.90;;;14.16;100.00;97723.47;5068233;28;20883;-79
2021/09/09 05:00:39;;;;;;;9.57;6.53;;;12.90;99.90;;;14.17;100.00;97719.03;5064716;28;20481;-79
2021/09/09 05:03:08;;;;;;;8.63;5.60;;;12.90;99.90;;;14.22;100.00;97722.63;5066446;28;20459;-79
2021/09/09 05:05:37;;;;;;;10.17;5.70;;;13.00;99.90;;;14.19;100.00;97717.81;5070524;28;20449;-79
2021/09/09 05:08:07;;;;;;;10.93;7.33;;;13.00;99.90;;;14.04;100.00;97714.72;5070645;28;20456;-79
2021/09/09 05:10:36;;;;;;;10.03;6.53;;;12.80;99.90;;;14.03;100.00;97715.72;5068164;28;20855;-79
2021/09/09 05:13:04;;;;;;;12.67;6.73;;;12.70;99.90;;;14.02;100.00;97716.78;5070564;28;20457;-79
2021/09/09 05:15:33;;;;;;;11.60;7.07;;;12.70;99.90;;;14.02;100.00;97719.41;5074512;28;20558;-79
2021/09/09 05:18:01;;;;;;;11.63;6.57;;;12.70;99.90;;;14.05;100.00;97717.13;5067976;28;20496;-80
2021/09/09 05:20:30;;;;;;;11.77;7.00;;;12.80;99.90;;;14.09;100.00;97722.78;5072707;28;20440;-79
2021/09/09 05:22:58;;;;;;;10.27;7.10;;;12.90;99.90;;;14.00;100.00;97724.84;5066017;28;20444;-79
2021/09/09 05:25:28;;;;;;;8.83;5.77;;;12.80;99.90;;;14.04;100.00;97719.97;5074130;28;20474;-79
2021/09/09 05:27:57;;;;;;;10.10;6.60;;;12.80;99.90;;;14.07;100.00;97719.53;5069059;28;20509;-79
2021/09/09 05:30:25;;;;;;;23.67;6.47;;;12.90;99.90;;;14.09;100.00;97714.88;5061674;28;20448;-80
2021/09/09 05:32:54;;;;;;;7.30;6.00;;;12.90;99.90;;;14.14;100.00;97722.91;5067935;28;20480;-79
2021/09/09 05:35:22;;;;;;;10.67;5.80;;;12.90;99.90;;;14.04;100.00;97717.34;5066511;28;20523;-80
2021/09/09 05:37:51;;;;;;;11.17;7.17;;;12.80;99.90;;;14.00;100.00;97716.97;5068448;28;20526;-79
2021/09/09 05:40:19;;;;;;;22.47;6.60;;;12.80;99.90;;;14.06;100.00;97712.66;5073760;28;20448;-80
2021/09/09 05:42:49;;;;;;;11.80;6.80;;;12.80;99.90;;;14.08;100.00;97715.91;5073409;28;20513;-79
2021/09/09 05:45:18;;;;;;;9.33;6.53;;;12.90;99.90;;;14.11;100.00;97713.63;5058764;28;20477;-79
2021/09/09 05:47:47;;;;;;;11.20;7.00;;;13.00;99.90;;;14.11;100.00;97712.81;5061202;28;21071;-79
2021/09/09 05:50:17;;;;;;;11.50;6.67;;;13.00;99.90;;;14.07;100.00;97724.78;5068203;28;20827;-79
2021/09/09 05:52:45;;;;;;;9.57;6.10;;;12.90;99.90;;;14.13;100.00;97716.03;5065257;28;20912;-79
2021/09/09 05:55:15;;;;;;;15.57;6.57;;;13.00;99.90;;;14.15;100.00;97715.81;5071881;28;20540;-79
2021/09/09 05:57:43;;;;;;;8.43;6.37;;;13.00;99.90;;;14.18;100.00;97720.66;5065886;28;20500;-79
2021/09/09 06:00:14;;;;;;;10.60;6.90;;;13.00;99.90;;;14.20;100.00;97727.28;5068260;28;20441;-79
2021/09/09 06:02:44;;;;;;;8.90;6.87;;;13.00;99.90;;;14.22;100.00;97727.09;5074147;28;20444;-79
2021/09/09 06:05:16;;;;;;;9.23;6.73;;;13.10;99.90;;;14.29;100.00;97728.63;5073245;28;20503;-79
2021/09/09 06:07:45;;;;;;;10.43;7.27;;;13.20;99.90;;;14.33;100.00;97732.44;5073538;28;20448;-79
2021/09/09 06:10:14;;;;;;;10.70;6.97;;;13.20;99.90;;;14.39;100.00;97738.66;5067445;28;20448;-79
2021/09/09 06:12:42;;;;;;;18.17;6.90;;;13.30;99.90;;;14.38;100.00;97737.88;5072316;28;20963;-80
2021/09/09 06:15:15;;;;;;;11.90;6.70;;;13.40;99.90;;;14.44;100.00;97758.03;5073150;28;20455;-79
2021/09/09 06:17:44;;;;;;;8.97;7.00;;;13.40;99.90;;;14.47;100.00;97747.06;5059451;28;20487;-79
2021/09/09 06:20:15;;;;;;;12.63;7.90;;;13.50;99.90;;;14.54;100.00;97747.03;5073302;28;20517;-79
2021/09/09 06:22:44;;;;;;;10.97;7.50;;;13.60;99.90;;;14.56;100.00;97751.03;5071626;28;20449;-79
2021/09/09 06:25:12;;;;;;;11.83;6.63;;;13.60;99.90;;;14.63;100.00;97740.44;5071581;28;20448;-79
2021/09/09 06:27:41;;;;;;;14.20;6.43;;;13.60;99.90;;;14.66;100.00;97747.88;5067741;28;20895;-79
2021/09/09 06:30:10;;;;;;;12.83;7.10;;;13.60;99.90;;;14.73;100.00;97751.25;5066666;28;20436;-80
2021/09/09 06:32:41;;;;;;;11.10;6.50;;;13.70;99.90;;;14.80;100.00;97743.25;5070976;28;20472;-80
2021/09/09 06:35:09;;;;;;;11.93;6.77;;;13.70;99.90;;;14.85;100.00;97746.06;5067027;28;20460;-79
2021/09/09 06:37:39;;;;;;;10.30;7.47;;;13.90;99.90;;;14.87;100.00;97744.00;5065399;28;20510;-79
2021/09/09 06:40:09;;;;;;;13.13;7.20;;;13.90;99.90;;;14.89;100.00;97740.09;5072077;28;20510;-79
2021/09/09 06:42:39;;;;;;;11.60;7.23;;;14.00;99.90;;;14.92;100.00;97733.59;5067665;28;20455;-79
2021/09/09 06:45:09;;;;;;;13.63;7.10;;;13.90;99.90;;;14.95;100.00;97741.06;5072767;28;20449;-80
2021/09/09 06:47:38;;;;;;;11.03;6.83;;;13.90;99.90;;;14.98;100.00;97738.78;5070129;28;20473;-80
2021/09/09 06:50:09;;;;;;;8.60;6.43;;;13.90;99.90;;;15.03;100.00;97736.28;5070972;28;20512;-79
2021/09/09 06:52:39;;;;;;;9.70;7.13;;;14.00;99.90;;;15.06;100.00;97730.56;5068500;28;20459;-80
2021/09/09 06:55:08;;;;;;;14.07;7.50;;;14.00;99.90;;;15.14;100.00;97732.09;5069982;28;20807;-80
2021/09/09 06:57:37;;;;;;;13.23;8.13;;;14.10;99.90;;;15.24;100.00;97742.09;5070374;28;20444;-80
2021/09/09 07:00:07;;;;;;;12.20;7.57;;;14.20;99.90;;;15.29;100.00;97739.59;5070161;28;20502;-79
2021/09/09 07:02:37;;;;;;;11.37;6.70;;;14.30;99.90;;;15.37;100.00;97736.66;5070959;28;20833;-80
2021/09/09 07:05:10;;;;;;;11.97;7.63;;;14.40;99.90;;;15.45;100.00;97726.56;5066178;28;20942;-80
2021/09/09 07:07:39;;;;;;;13.80;8.00;;;14.50;99.90;;;15.53;100.00;97731.56;5066975;28;20937;-80
2021/09/09 07:10:10;;;;;;;17.00;7.07;;;14.60;99.90;;;15.62;100.00;97723.31;5065743;28;20448;-80
2021/09/09 07:12:39;;;;;;;10.77;7.10;;;14.60;99.90;;;15.69;100.00;97724.03;5067429;28;20531;-79
2021/09/09 07:15:08;;;;;;;9.37;7.30;;;14.70;99.90;;;15.73;100.00;97725.97;5064923;28;20457;-80
2021/09/09 07:17:37;;;;;;;15.70;7.53;;;14.80;99.90;;;15.79;100.00;97730.31;5070329;28;20549;-80
2021/09/09 07:20:08;;;;;;;12.90;6.80;;;14.80;99.90;;;15.86;100.00;97727.59;5070242;28;20530;-80
2021/09/09 07:22:37;;;;;;;12.10;6.77;;;14.90;99.90;;;15.90;100.00;97726.09;5069128;28;20449;-79
2021/09/09 07:25:09;;;;;;;12.97;6.80;;;14.90;99.90;;;15.96;100.00;97725.19;5068383;28;20449;-80
2021/09/09 07:27:39;;;;;;;9.70;7.03;;;15.00;99.90;;;16.04;100.00;97738.84;5069442;28;20455;-79
2021/09/09 07:30:08;;;;;;;11.20;7.10;;;15.10;99.90;;;16.11;100.00;97736.06;5065028;28;20476;-80
2021/09/09 07:32:38;;;;;;;11.50;7.07;;;15.20;99.90;;;16.19;100.00;97734.94;5071333;28;20452;-80
2021/09/09 07:35:10;;;;;;;10.03;7.30;;;15.30;99.90;;;16.27;100.00;97731.97;5063680;28;20952;-79
2021/09/09 07:37:39;;;;;;;9.80;6.27;;;15.30;99.90;;;16.36;100.00;97731.38;5071255;28;20517;-80
2021/09/09 07:40:10;;;;;;;14.47;7.07;;;15.40;99.90;;;16.45;100.00;97724.69;5070925;28;20524;-79
2021/09/09 07:42:39;;;;;;;12.17;7.77;;;15.60;99.90;;;16.55;100.00;97730.25;5064015;28;20445;-80
2021/09/09 07:45:08;;;;;;;12.10;7.80;;;15.70;99.90;;;16.64;100.00;97732.50;5063525;28;20464;-80
2021/09/09 07:47:38;;;;;;;10.17;7.23;;;15.80;99.90;;;16.71;100.00;97728.69;5071484;28;20523;-80
2021/09/09 07:50:10;;;;;;;13.70;7.73;;;15.90;99.90;;;16.80;100.00;97731.78;5065165;28;20510;-80
2021/09/09 07:52:41;;;;;;;9.80;7.00;;;16.00;99.90;;;16.88;100.00;97723.47;5061789;28;20459;-80
2021/09/09 07:55:12;;;;;;;19.40;8.20;;;16.10;99.90;;;16.95;100.00;97727.59;5070689;28;20479;-80
2021/09/09 07:57:45;;;;;;;11.50;7.93;;;16.10;99.90;;;17.05;100.00;97740.19;5068809;28;20460;-80
2021/09/09 08:00:15;;;;;;;9.57;7.20;;;16.20;99.90;;;17.13;100.00;97745.09;5064789;28;21077;-80
2021/09/09 08:02:44;;;;;;;13.73;8.40;;;16.30;99.90;;;17.20;100.00;97740.47;5066243;28;20515;-80
2021/09/09 08:05:14;;;;;;;13.60;7.67;;;16.40;99.90;;;17.29;100.00;97752.25;5070882;28;20498;-80
2021/09/09 08:07:45;;;;;;;11.00;7.20;;;16.50;99.90;;;17.40;100.00;97755.88;5066550;28;20824;-80
2021/09/09 08:10:17;;;;;;;11.57;8.07;;;16.60;99.90;;;17.49;100.00;97762.41;5072570;28;20452;-80
2021/09/09 08:12:48;;;;;;;20.73;8.40;;;16.60;99.90;;;17.58;100.00;97771.59;5070551;28;20452;-80
2021/09/09 08:15:17;;;;;;;11.80;8.30;;;16.80;99.90;;;17.68;100.00;97776.25;5062087;28;20453;-80
2021/09/09 08:17:46;;;;;;;19.40;9.80;;;16.90;99.90;;;17.76;100.00;97773.22;5067892;28;20452;-81
2021/09/09 08:20:16;;;;;;;18.90;9.90;;;17.00;99.90;;;17.83;100.00;97785.25;5072371;28;20503;-80
2021/09/09 08:22:45;;;;;;;12.50;8.00;;;17.10;99.90;;;17.91;100.00;97781.41;5059504;28;20932;-80
2021/09/09 08:25:14;;;;;;;9.27;7.07;;;17.20;99.90;;;18.03;100.00;97782.94;5069512;28;20474;-80
2021/09/09 08:27:42;;;;;;;9.83;6.33;;;17.30;99.90;;;18.14;100.00;97791.81;5069097;28;20545;-80
2021/09/09 08:30:11;;;;;;;8.60;6.30;;;17.40;99.90;;;18.24;100.00;97797.28;5064270;28;20966;-80
2021/09/09 08:32:41;;;;;;;8.47;6.40;;;17.50;99.90;;;18.33;100.00;97785.22;5069085;28;20539;-81
2021/09/09 08:35:11;;;;;;;11.40;6.83;;;17.60;99.90;;;18.41;100.00;97787.47;5070477;28;20505;-80
2021/09/09 08:37:41;;;;;;;9.73;6.70;;;17.60;99.90;;;18.50;100.00;97785.22;5070083;28;20452;-80
2021/09/09 08:40:10;;;;;;;9.20;6.87;;;17.80;99.90;;;18.62;100.00;97793.06;5067245;28;20996;-80
2021/09/09 08:42:43;;;;;;;9.17;6.53;;;17.80;99.90;;;18.68;100.00;97792.09;5064467;28;20546;-80
2021/09/09 08:45:13;;;;;;;8.17;6.50;;;17.90;99.90;;;18.74;100.00;97791.94;5067745;28;20457;-80
2021/09/09 08:47:43;;;;;;;9.50;6.27;;;18.00;99.90;;;18.79;100.00;97804.44;5065594;28;20510;-80
2021/09/09 08:50:12;;;;;;;8.50;6.20;;;18.00;99.90;;;18.86;100.00;97810.34;5063491;28;20495;-80
2021/09/09 08:52:42;;;;;;;9.93;7.37;;;18.10;99.90;;;18.91;100.00;97805.94;5070323;28;20959;-81
2021/09/09 08:55:12;;;;;;;12.50;6.63;;;18.20;99.90;;;18.97;100.00;97804.13;5064954;28;20480;-80
2021/09/09 08:57:41;;;;;;;11.23;7.03;;;18.30;99.90;;;19.01;100.00;97803.41;5063781;28;20469;-80
2021/09/09 09:00:11;;;;;;;19.80;7.50;;;18.40;99.90;;;19.00;100.00;97812.41;5066913;28;20495;-80
2021/09/09 09:02:54;;;;;;;14.73;7.57;;;18.30;99.90;;;18.97;100.00;97814.75;5069230;28;20448;-80
2021/09/09 09:05:25;;;;;;;11.40;7.97;;;18.20;99.90;;;18.80;100.00;97806.84;5064699;28;20987;-80
2021/09/09 09:08:04;;;;;;;9.57;7.10;;;18.00;99.90;;;18.68;100.00;97808.78;5068475;28;20494;-80
2021/09/09 09:10:34;;;;;;;15.07;8.50;;;17.80;99.90;;;18.68;100.00;97810.63;5070177;28;20444;-80
2021/09/09 09:13:03;;;;;;;13.60;7.87;;;17.90;99.90;;;18.69;100.00;97813.03;5069324;28;20482;-80
2021/09/09 09:15:33;;;;;;;27.13;11.43;;;17.90;99.90;;;18.70;100.00;97821.81;5070178;28;20448;-80
2021/09/09 09:18:06;;;;;;;19.30;9.60;;;17.80;99.90;;;18.70;100.00;97822.59;5068145;28;20456;-80
2021/09/09 09:20:44;;;;;;;19.90;8.60;;;17.90;99.90;;;18.67;100.00;97823.09;5069893;28;20500;-81
2021/09/09 09:23:22;;;;;;;18.23;9.60;;;18.00;99.90;;;18.62;100.00;97825.66;5063779;28;20520;-80
2021/09/09 09:25:56;;;;;;;14.67;9.20;;;17.80;99.90;;;18.56;100.00;97814.22;5065557;28;20471;-81
2021/09/09 09:28:44;;;;;;;18.70;9.97;;;17.70;99.90;;;18.59;100.00;97831.44;5057480;28;20461;-80
2021/09/09 09:31:16;;;;;;;20.87;10.50;;;17.60;99.90;;;18.58;100.00;97830.66;5069150;28;20494;-80
2021/09/09 09:33:47;;;;;;;26.30;9.73;;;17.70;99.90;;;18.60;100.00;97828.53;5068114;28;20460;-80
2021/09/09 09:36:22;;;;;;;24.63;10.73;;;17.70;99.90;;;18.60;100.00;97823.25;5063081;28;20445;-80
2021/09/09 09:39:04;;;;;;;13.23;9.10;;;17.70;99.90;;;18.64;100.00;97828.09;5068253;28;20448;-80
2021/09/09 09:41:33;;;;;;;18.57;9.80;;;17.70;99.90;;;18.64;100.00;97828.09;5067632;28;20482;-81
2021/09/09 09:44:18;;;;;;;23.37;11.37;;;17.60;99.90;;;18.63;100.00;97837.06;5063724;28;20468;-80
2021/09/09 09:46:47;;;;;;;23.30;10.83;;;17.60;99.90;;;18.63;100.00;97831.75;5067747;28;20441;-81
2021/09/09 09:49:26;;;;;;;15.57;10.50;;;17.60;99.90;;;18.64;100.00;97828.09;5063577;28;20806;-80
2021/09/09 09:51:59;;;;;;;16.77;10.90;;;17.60;99.90;;;18.65;100.00;97833.13;5070201;28;20510;-80
2021/09/09 09:54:30;;;;;;;17.60;11.10;;;17.70;99.90;;;18.67;100.00;97822.28;5069971;28;20476;-80
2021/09/09 09:57:01;;;;;;;24.17;11.40;;;17.80;99.90;;;18.69;100.00;97814.88;5066858;28;20573;-80
2021/09/09 09:59:31;;;;;;;20.50;11.13;;;17.80;99.90;;;18.71;100.00;97816.25;5071994;28;20452;-80
2021/09/09 10:02:00;;;;;;;21.00;9.93;;;17.80;99.90;;;18.76;100.00;97804.91;5070959;28;20452;-80
2021/09/09 10:04:30;;;;;;;18.50;10.40;;;17.80;99.90;;;18.82;100.00;97803.94;5072819;28;20463;-81
2021/09/09 10:06:59;;;;;;;18.73;11.43;;;17.90;99.90;;;18.86;100.00;97810.34;5068718;28;20563;-80
2021/09/09 10:09:29;;;;;;;22.87;11.90;;;18.00;99.90;;;18.89;100.00;97809.84;5072960;28;20486;-80
2021/09/09 10:11:58;;;;;;;29.27;10.33;;;18.20;99.90;;;18.94;100.00;97809.94;5073373;28;20484;-81
2021/09/09 10:14:28;;;;;;;17.10;10.17;;;18.10;99.90;;;18.97;100.00;97801.47;5073001;28;20449;-80
2021/09/09 10:17:00;;;;;;;18.60;10.30;;;18.10;99.90;;;19.00;100.00;97798.34;5069527;28;20497;-80